sensor_id;sensor_type;location;lat;lon;timestamp;temperature;humidity
47779;DHT22;33538;48.432;11.350;2024-03-22T00:00:46;8.60;94.70
47779;DHT22;33538;48.432;11.350;2024-03-22T00:03:12;8.60;94.40
47779;DHT22;33538;48.432;11.350;2024-03-22T00:05:38;8.50;93.80
47779;DHT22;33538;48.432;11.350;2024-03-22T00:08:04;8.50;94.00
47779;DHT22;33538;48.432;11.350;2024-03-22T00:10:30;8.70;93.70
47779;DHT22;33538;48.432;11.350;2024-03-22T00:12:56;8.70;93.70
47779;DHT22;33538;48.432;11.350;2024-03-22T00:15:23;8.70;93.90
47779;DHT22;33538;48.432;11.350;2024-03-22T00:17:49;8.70;93.80
47779;DHT22;33538;48.432;11.350;2024-03-22T00:20:15;8.70;93.60
47779;DHT22;33538;48.432;11.350;2024-03-22T00:22:41;8.70;93.20
47779;DHT22;33538;48.432;11.350;2024-03-22T00:25:07;8.70;93.10
47779;DHT22;33538;48.432;11.350;2024-03-22T00:27:33;8.60;93.60
47779;DHT22;33538;48.432;11.350;2024-03-22T00:29:59;8.60;93.60
47779;DHT22;33538;48.432;11.350;2024-03-22T00:32:26;8.60;93.30
47779;DHT22;33538;48.432;11.350;2024-03-22T00:34:52;8.60;93.60
47779;DHT22;33538;48.432;11.350;2024-03-22T00:37:18;8.60;93.50
47779;DHT22;33538;48.432;11.350;2024-03-22T00:39:44;8.60;93.70
47779;DHT22;33538;48.432;11.350;2024-03-22T00:42:10;8.50;93.60
47779;DHT22;33538;48.432;11.350;2024-03-22T00:44:35;8.50;93.50
47779;DHT22;33538;48.432;11.350;2024-03-22T00:47:01;8.50;93.10
47779;DHT22;33538;48.432;11.350;2024-03-22T00:49:29;8.50;92.90
47779;DHT22;33538;48.432;11.350;2024-03-22T00:51:54;8.50;93.00
47779;DHT22;33538;48.432;11.350;2024-03-22T00:54:20;8.50;92.80
47779;DHT22;33538;48.432;11.350;2024-03-22T00:56:46;8.50;92.60
47779;DHT22;33538;48.432;11.350;2024-03-22T00:59:12;8.50;92.70
47779;DHT22;33538;48.432;11.350;2024-03-22T01:01:38;8.50;92.80
47779;DHT22;33538;48.432;11.350;2024-03-22T01:04:04;8.40;92.70
47779;DHT22;33538;48.432;11.350;2024-03-22T01:06:31;8.40;92.30
47779;DHT22;33538;48.432;11.350;2024-03-22T01:08:57;8.30;91.90
47779;DHT22;33538;48.432;11.350;2024-03-22T01:11:22;8.20;91.90
47779;DHT22;33538;48.432;11.350;2024-03-22T01:13:48;8.10;92.20
47779;DHT22;33538;48.432;11.350;2024-03-22T01:16:14;8.10;93.10
47779;DHT22;33538;48.432;11.350;2024-03-22T01:18:40;8.00;92.60
47779;DHT22;33538;48.432;11.350;2024-03-22T01:21:06;7.70;94.20
47779;DHT22;33538;48.432;11.350;2024-03-22T01:23:33;7.80;94.20
47779;DHT22;33538;48.432;11.350;2024-03-22T01:25:59;8.00;93.60
47779;DHT22;33538;48.432;11.350;2024-03-22T01:28:25;8.10;93.20
47779;DHT22;33538;48.432;11.350;2024-03-22T01:30:50;8.20;93.20
47779;DHT22;33538;48.432;11.350;2024-03-22T01:33:16;8.10;93.40
47779;DHT22;33538;48.432;11.350;2024-03-22T01:35:42;8.00;93.20
47779;DHT22;33538;48.432;11.350;2024-03-22T01:38:08;7.90;94.00
47779;DHT22;33538;48.432;11.350;2024-03-22T01:40:35;7.90;94.20
47779;DHT22;33538;48.432;11.350;2024-03-22T01:43:01;7.70;94.80
47779;DHT22;33538;48.432;11.350;2024-03-22T01:45:32;7.50;95.70
47779;DHT22;33538;48.432;11.350;2024-03-22T01:47:58;7.80;95.10
47779;DHT22;33538;48.432;11.350;2024-03-22T01:50:24;8.00;94.40
47779;DHT22;33538;48.432;11.350;2024-03-22T01:52:51;8.10;93.50
47779;DHT22;33538;48.432;11.350;2024-03-22T01:55:17;8.20;93.40
47779;DHT22;33538;48.432;11.350;2024-03-22T01:57:44;8.20;92.80
47779;DHT22;33538;48.432;11.350;2024-03-22T02:00:10;8.10;92.80
47779;DHT22;33538;48.432;11.350;2024-03-22T02:02:36;8.10;92.50
47779;DHT22;33538;48.432;11.350;2024-03-22T02:05:11;8.10;92.20
47779;DHT22;33538;48.432;11.350;2024-03-22T02:07:37;8.10;92.10
47779;DHT22;33538;48.432;11.350;2024-03-22T02:10:06;8.00;92.20
47779;DHT22;33538;48.432;11.350;2024-03-22T02:12:33;8.00;92.20
47779;DHT22;33538;48.432;11.350;2024-03-22T02:15:01;8.00;92.10
47779;DHT22;33538;48.432;11.350;2024-03-22T02:17:27;7.80;92.70
47779;DHT22;33538;48.432;11.350;2024-03-22T02:19:53;7.60;94.10
47779;DHT22;33538;48.432;11.350;2024-03-22T02:22:19;7.70;94.00
47779;DHT22;33538;48.432;11.350;2024-03-22T02:24:46;7.80;93.30
47779;DHT22;33538;48.432;11.350;2024-03-22T02:27:12;7.90;92.60
47779;DHT22;33538;48.432;11.350;2024-03-22T02:29:37;7.90;92.50
47779;DHT22;33538;48.432;11.350;2024-03-22T02:32:04;7.80;92.70
47779;DHT22;33538;48.432;11.350;2024-03-22T02:34:30;7.90;92.70
47779;DHT22;33538;48.432;11.350;2024-03-22T02:36:56;7.90;92.10
47779;DHT22;33538;48.432;11.350;2024-03-22T02:39:21;7.90;92.60
47779;DHT22;33538;48.432;11.350;2024-03-22T02:41:49;7.90;92.10
47779;DHT22;33538;48.432;11.350;2024-03-22T02:44:14;7.90;92.20
47779;DHT22;33538;48.432;11.350;2024-03-22T02:46:40;7.90;91.80
47779;DHT22;33538;48.432;11.350;2024-03-22T02:49:06;7.70;91.70
47779;DHT22;33538;48.432;11.350;2024-03-22T02:51:32;7.50;92.70
47779;DHT22;33538;48.432;11.350;2024-03-22T02:53:58;7.60;92.90
47779;DHT22;33538;48.432;11.350;2024-03-22T02:56:24;7.70;92.30
47779;DHT22;33538;48.432;11.350;2024-03-22T02:58:51;7.70;92.20
47779;DHT22;33538;48.432;11.350;2024-03-22T03:01:17;7.70;92.20
47779;DHT22;33538;48.432;11.350;2024-03-22T03:03:42;7.70;92.00
47779;DHT22;33538;48.432;11.350;2024-03-22T03:06:08;7.60;92.40
47779;DHT22;33538;48.432;11.350;2024-03-22T03:08:34;7.70;92.50
47779;DHT22;33538;48.432;11.350;2024-03-22T03:11:00;7.70;92.10
47779;DHT22;33538;48.432;11.350;2024-03-22T03:13:26;7.50;92.50
47779;DHT22;33538;48.432;11.350;2024-03-22T03:15:53;7.20;93.90
47779;DHT22;33538;48.432;11.350;2024-03-22T03:18:19;7.30;94.20
47779;DHT22;33538;48.432;11.350;2024-03-22T03:20:45;7.50;93.20
47779;DHT22;33538;48.432;11.350;2024-03-22T03:23:11;7.60;92.40
47779;DHT22;33538;48.432;11.350;2024-03-22T03:25:36;7.60;92.10
47779;DHT22;33538;48.432;11.350;2024-03-22T03:28:03;7.60;91.90
47779;DHT22;33538;48.432;11.350;2024-03-22T03:30:28;7.50;91.60
47779;DHT22;33538;48.432;11.350;2024-03-22T03:32:56;7.50;91.80
47779;DHT22;33538;48.432;11.350;2024-03-22T03:35:22;7.60;91.50
47779;DHT22;33538;48.432;11.350;2024-03-22T03:37:47;7.50;91.40
47779;DHT22;33538;48.432;11.350;2024-03-22T03:40:13;7.50;91.20
47779;DHT22;33538;48.432;11.350;2024-03-22T03:42:39;7.50;91.20
47779;DHT22;33538;48.432;11.350;2024-03-22T03:45:06;7.50;91.20
47779;DHT22;33538;48.432;11.350;2024-03-22T03:47:32;7.50;91.00
47779;DHT22;33538;48.432;11.350;2024-03-22T03:49:59;7.50;90.90
47779;DHT22;33538;48.432;11.350;2024-03-22T03:52:25;7.50;90.90
47779;DHT22;33538;48.432;11.350;2024-03-22T03:54:51;7.50;90.70
47779;DHT22;33538;48.432;11.350;2024-03-22T03:57:17;7.50;90.60
47779;DHT22;33538;48.432;11.350;2024-03-22T03:59:42;7.50;90.70
47779;DHT22;33538;48.432;11.350;2024-03-22T04:02:08;7.50;90.60
47779;DHT22;33538;48.432;11.350;2024-03-22T04:04:34;7.50;90.50
47779;DHT22;33538;48.432;11.350;2024-03-22T04:07:01;7.40;90.60
47779;DHT22;33538;48.432;11.350;2024-03-22T04:09:27;7.30;90.50
47779;DHT22;33538;48.432;11.350;2024-03-22T04:11:53;7.20;91.00
47779;DHT22;33538;48.432;11.350;2024-03-22T04:14:19;7.30;90.90
47779;DHT22;33538;48.432;11.350;2024-03-22T04:16:45;7.40;90.70
47779;DHT22;33538;48.432;11.350;2024-03-22T04:19:11;7.40;90.60
47779;DHT22;33538;48.432;11.350;2024-03-22T04:21:36;7.30;90.50
47779;DHT22;33538;48.432;11.350;2024-03-22T04:24:04;7.30;90.70
47779;DHT22;33538;48.432;11.350;2024-03-22T04:26:30;7.20;90.70
47779;DHT22;33538;48.432;11.350;2024-03-22T04:28:56;7.30;90.70
47779;DHT22;33538;48.432;11.350;2024-03-22T04:31:22;7.20;90.70
47779;DHT22;33538;48.432;11.350;2024-03-22T04:33:48;7.20;90.70
47779;DHT22;33538;48.432;11.350;2024-03-22T04:36:14;7.20;90.60
47779;DHT22;33538;48.432;11.350;2024-03-22T04:38:41;7.20;90.50
47779;DHT22;33538;48.432;11.350;2024-03-22T04:41:08;7.20;90.40
47779;DHT22;33538;48.432;11.350;2024-03-22T04:43:34;7.20;90.40
47779;DHT22;33538;48.432;11.350;2024-03-22T04:45:59;7.20;90.40
47779;DHT22;33538;48.432;11.350;2024-03-22T04:48:25;7.20;90.30
47779;DHT22;33538;48.432;11.350;2024-03-22T04:50:52;7.00;90.60
47779;DHT22;33538;48.432;11.350;2024-03-22T04:53:18;7.00;90.70
47779;DHT22;33538;48.432;11.350;2024-03-22T04:55:45;7.10;90.70
47779;DHT22;33538;48.432;11.350;2024-03-22T04:58:13;6.80;91.30
47779;DHT22;33538;48.432;11.350;2024-03-22T05:00:40;6.80;91.90
47779;DHT22;33538;48.432;11.350;2024-03-22T05:03:06;7.00;91.60
47779;DHT22;33538;48.432;11.350;2024-03-22T05:05:32;7.00;91.50
47779;DHT22;33538;48.432;11.350;2024-03-22T05:07:58;7.00;91.10
47779;DHT22;33538;48.432;11.350;2024-03-22T05:10:24;7.00;91.20
47779;DHT22;33538;48.432;11.350;2024-03-22T05:12:49;7.00;91.20
47779;DHT22;33538;48.432;11.350;2024-03-22T05:15:17;7.00;91.20
47779;DHT22;33538;48.432;11.350;2024-03-22T05:17:43;7.00;91.10
47779;DHT22;33538;48.432;11.350;2024-03-22T05:20:09;7.00;91.30
47779;DHT22;33538;48.432;11.350;2024-03-22T05:22:36;7.00;91.10
47779;DHT22;33538;48.432;11.350;2024-03-22T05:25:02;7.00;90.90
47779;DHT22;33538;48.432;11.350;2024-03-22T05:27:28;6.90;90.80
47779;DHT22;33538;48.432;11.350;2024-03-22T05:29:54;6.90;90.80
47779;DHT22;33538;48.432;11.350;2024-03-22T05:32:21;6.80;90.70
47779;DHT22;33538;48.432;11.350;2024-03-22T05:34:47;6.90;91.40
47779;DHT22;33538;48.432;11.350;2024-03-22T05:37:12;6.90;90.90
47779;DHT22;33538;48.432;11.350;2024-03-22T05:39:38;6.80;91.00
47779;DHT22;33538;48.432;11.350;2024-03-22T05:42:05;6.70;91.00
47779;DHT22;33538;48.432;11.350;2024-03-22T05:44:30;6.90;91.00
47779;DHT22;33538;48.432;11.350;2024-03-22T05:46:56;7.00;90.90
47779;DHT22;33538;48.432;11.350;2024-03-22T05:49:24;7.00;90.70
47779;DHT22;33538;48.432;11.350;2024-03-22T05:51:49;7.00;90.70
47779;DHT22;33538;48.432;11.350;2024-03-22T05:54:15;7.00;90.90
47779;DHT22;33538;48.432;11.350;2024-03-22T05:56:41;7.00;90.90
47779;DHT22;33538;48.432;11.350;2024-03-22T05:59:07;6.90;91.30
47779;DHT22;33538;48.432;11.350;2024-03-22T06:01:33;6.90;91.30
47779;DHT22;33538;48.432;11.350;2024-03-22T06:03:59;6.90;91.20
47779;DHT22;33538;48.432;11.350;2024-03-22T06:06:26;6.90;91.20
47779;DHT22;33538;48.432;11.350;2024-03-22T06:08:52;6.90;91.30
47779;DHT22;33538;48.432;11.350;2024-03-22T06:11:18;6.90;91.30
47779;DHT22;33538;48.432;11.350;2024-03-22T06:13:44;6.90;91.40
47779;DHT22;33538;48.432;11.350;2024-03-22T06:16:10;6.90;91.60
47779;DHT22;33538;48.432;11.350;2024-03-22T06:18:36;6.90;92.00
47779;DHT22;33538;48.432;11.350;2024-03-22T06:21:02;6.80;92.50
47779;DHT22;33538;48.432;11.350;2024-03-22T06:23:29;6.90;92.50
47779;DHT22;33538;48.432;11.350;2024-03-22T06:25:56;6.90;93.40
47779;DHT22;33538;48.432;11.350;2024-03-22T06:28:22;6.90;93.80
47779;DHT22;33538;48.432;11.350;2024-03-22T06:30:48;6.90;94.30
47779;DHT22;33538;48.432;11.350;2024-03-22T06:33:14;7.00;94.20
47779;DHT22;33538;48.432;11.350;2024-03-22T06:35:41;7.00;94.60
47779;DHT22;33538;48.432;11.350;2024-03-22T06:38:06;7.10;94.80
47779;DHT22;33538;48.432;11.350;2024-03-22T06:40:34;7.10;94.60
47779;DHT22;33538;48.432;11.350;2024-03-22T06:43:00;7.20;95.40
47779;DHT22;33538;48.432;11.350;2024-03-22T06:45:26;7.20;95.40
47779;DHT22;33538;48.432;11.350;2024-03-22T06:47:52;7.30;95.20
47779;DHT22;33538;48.432;11.350;2024-03-22T06:50:18;7.30;95.40
47779;DHT22;33538;48.432;11.350;2024-03-22T06:52:44;7.30;94.10
47779;DHT22;33538;48.432;11.350;2024-03-22T06:55:10;7.40;93.20
47779;DHT22;33538;48.432;11.350;2024-03-22T06:57:37;7.60;91.80
47779;DHT22;33538;48.432;11.350;2024-03-22T07:00:03;7.70;91.40
47779;DHT22;33538;48.432;11.350;2024-03-22T07:02:29;7.70;90.80
47779;DHT22;33538;48.432;11.350;2024-03-22T07:04:55;7.80;90.50
47779;DHT22;33538;48.432;11.350;2024-03-22T07:07:21;7.80;90.70
47779;DHT22;33538;48.432;11.350;2024-03-22T07:09:47;7.90;90.20
47779;DHT22;33538;48.432;11.350;2024-03-22T07:12:12;7.90;90.00
47779;DHT22;33538;48.432;11.350;2024-03-22T07:14:40;7.90;90.00
47779;DHT22;33538;48.432;11.350;2024-03-22T07:17:05;7.90;90.10
47779;DHT22;33538;48.432;11.350;2024-03-22T07:19:31;7.90;90.10
47779;DHT22;33538;48.432;11.350;2024-03-22T07:21:57;8.00;90.10
47779;DHT22;33538;48.432;11.350;2024-03-22T07:24:23;8.00;90.10
47779;DHT22;33538;48.432;11.350;2024-03-22T07:26:49;8.00;90.20
47779;DHT22;33538;48.432;11.350;2024-03-22T07:29:15;8.00;90.30
47779;DHT22;33538;48.432;11.350;2024-03-22T07:31:42;8.00;90.30
47779;DHT22;33538;48.432;11.350;2024-03-22T07:34:08;8.00;90.30
47779;DHT22;33538;48.432;11.350;2024-03-22T07:36:37;8.10;90.40
47779;DHT22;33538;48.432;11.350;2024-03-22T07:39:03;8.00;90.40
47779;DHT22;33538;48.432;11.350;2024-03-22T07:41:29;8.00;90.50
47779;DHT22;33538;48.432;11.350;2024-03-22T07:43:55;8.10;90.70
47779;DHT22;33538;48.432;11.350;2024-03-22T07:46:21;8.10;90.90
47779;DHT22;33538;48.432;11.350;2024-03-22T07:48:48;8.20;91.00
47779;DHT22;33538;48.432;11.350;2024-03-22T07:51:14;8.20;91.20
47779;DHT22;33538;48.432;11.350;2024-03-22T07:53:41;8.20;91.30
47779;DHT22;33538;48.432;11.350;2024-03-22T07:56:07;8.20;91.40
47779;DHT22;33538;48.432;11.350;2024-03-22T07:58:32;8.20;91.50
47779;DHT22;33538;48.432;11.350;2024-03-22T08:00:58;8.20;91.60
47779;DHT22;33538;48.432;11.350;2024-03-22T08:03:24;8.30;91.70
47779;DHT22;33538;48.432;11.350;2024-03-22T08:05:51;8.30;91.80
47779;DHT22;33538;48.432;11.350;2024-03-22T08:08:17;8.30;91.90
47779;DHT22;33538;48.432;11.350;2024-03-22T08:10:43;8.30;92.20
47779;DHT22;33538;48.432;11.350;2024-03-22T08:13:09;8.40;92.20
47779;DHT22;33538;48.432;11.350;2024-03-22T08:15:35;8.40;92.60
47779;DHT22;33538;48.432;11.350;2024-03-22T08:18:01;8.40;92.50
47779;DHT22;33538;48.432;11.350;2024-03-22T08:20:26;8.40;92.70
47779;DHT22;33538;48.432;11.350;2024-03-22T08:22:54;8.40;92.80
47779;DHT22;33538;48.432;11.350;2024-03-22T08:25:20;8.40;92.90
47779;DHT22;33538;48.432;11.350;2024-03-22T08:27:46;8.40;93.00
47779;DHT22;33538;48.432;11.350;2024-03-22T08:30:12;8.40;93.00
47779;DHT22;33538;48.432;11.350;2024-03-22T08:32:38;8.50;93.30
47779;DHT22;33538;48.432;11.350;2024-03-22T08:35:05;8.50;93.30
47779;DHT22;33538;48.432;11.350;2024-03-22T08:37:31;8.50;93.60
47779;DHT22;33538;48.432;11.350;2024-03-22T08:39:58;8.50;93.50
47779;DHT22;33538;48.432;11.350;2024-03-22T08:42:24;8.60;93.70
47779;DHT22;33538;48.432;11.350;2024-03-22T08:44:50;8.60;93.90
47779;DHT22;33538;48.432;11.350;2024-03-22T08:47:16;8.60;94.20
47779;DHT22;33538;48.432;11.350;2024-03-22T08:49:42;8.60;94.40
47779;DHT22;33538;48.432;11.350;2024-03-22T08:52:07;8.60;94.80
47779;DHT22;33538;48.432;11.350;2024-03-22T08:54:33;8.70;94.50
47779;DHT22;33538;48.432;11.350;2024-03-22T08:57:00;8.70;94.40
47779;DHT22;33538;48.432;11.350;2024-03-22T08:59:26;8.70;94.60
47779;DHT22;33538;48.432;11.350;2024-03-22T09:01:52;8.70;95.20
47779;DHT22;33538;48.432;11.350;2024-03-22T09:04:18;8.80;95.20
47779;DHT22;33538;48.432;11.350;2024-03-22T09:06:44;8.80;95.20
47779;DHT22;33538;48.432;11.350;2024-03-22T09:09:10;8.80;95.70
47779;DHT22;33538;48.432;11.350;2024-03-22T09:11:36;8.80;96.20
47779;DHT22;33538;48.432;11.350;2024-03-22T09:14:03;8.80;96.40
47779;DHT22;33538;48.432;11.350;2024-03-22T09:16:29;8.80;96.30
47779;DHT22;33538;48.432;11.350;2024-03-22T09:18:54;8.80;96.30
47779;DHT22;33538;48.432;11.350;2024-03-22T09:21:20;8.90;96.80
47779;DHT22;33538;48.432;11.350;2024-03-22T09:23:46;8.90;96.60
47779;DHT22;33538;48.432;11.350;2024-03-22T09:26:12;8.90;96.70
47779;DHT22;33538;48.432;11.350;2024-03-22T09:28:38;8.90;97.00
47779;DHT22;33538;48.432;11.350;2024-03-22T09:31:06;9.00;96.90
47779;DHT22;33538;48.432;11.350;2024-03-22T09:33:32;9.00;97.60
47779;DHT22;33538;48.432;11.350;2024-03-22T09:35:58;9.00;97.40
47779;DHT22;33538;48.432;11.350;2024-03-22T09:38:24;9.00;97.90
47779;DHT22;33538;48.432;11.350;2024-03-22T09:40:50;9.00;97.70
47779;DHT22;33538;48.432;11.350;2024-03-22T09:43:16;9.10;98.00
47779;DHT22;33538;48.432;11.350;2024-03-22T09:45:42;9.10;98.40
47779;DHT22;33538;48.432;11.350;2024-03-22T09:48:10;9.10;98.10
47779;DHT22;33538;48.432;11.350;2024-03-22T09:50:36;9.10;98.10
47779;DHT22;33538;48.432;11.350;2024-03-22T09:53:03;9.10;98.20
47779;DHT22;33538;48.432;11.350;2024-03-22T09:55:30;9.20;98.40
47779;DHT22;33538;48.432;11.350;2024-03-22T09:57:57;9.20;98.20
47779;DHT22;33538;48.432;11.350;2024-03-22T10:00:24;9.20;98.70
47779;DHT22;33538;48.432;11.350;2024-03-22T10:02:50;9.20;98.70
47779;DHT22;33538;48.432;11.350;2024-03-22T10:05:17;9.20;98.60
47779;DHT22;33538;48.432;11.350;2024-03-22T10:07:43;9.20;98.70
47779;DHT22;33538;48.432;11.350;2024-03-22T10:10:09;9.30;98.80
47779;DHT22;33538;48.432;11.350;2024-03-22T10:12:35;9.30;98.90
47779;DHT22;33538;48.432;11.350;2024-03-22T10:15:01;9.30;99.00
47779;DHT22;33538;48.432;11.350;2024-03-22T10:17:28;9.30;98.80
47779;DHT22;33538;48.432;11.350;2024-03-22T10:19:54;9.40;99.10
47779;DHT22;33538;48.432;11.350;2024-03-22T10:22:22;9.30;99.20
47779;DHT22;33538;48.432;11.350;2024-03-22T10:24:47;9.40;99.20
47779;DHT22;33538;48.432;11.350;2024-03-22T10:27:14;9.40;99.30
47779;DHT22;33538;48.432;11.350;2024-03-22T10:29:39;9.40;99.50
47779;DHT22;33538;48.432;11.350;2024-03-22T10:32:06;9.40;99.60
47779;DHT22;33538;48.432;11.350;2024-03-22T10:34:34;9.50;99.70
47779;DHT22;33538;48.432;11.350;2024-03-22T10:37:01;9.50;99.70
47779;DHT22;33538;48.432;11.350;2024-03-22T10:39:28;9.50;99.90
47779;DHT22;33538;48.432;11.350;2024-03-22T10:41:56;9.50;99.90
47779;DHT22;33538;48.432;11.350;2024-03-22T10:44:22;9.50;99.90
47779;DHT22;33538;48.432;11.350;2024-03-22T10:46:48;9.50;99.90
47779;DHT22;33538;48.432;11.350;2024-03-22T10:49:16;9.60;99.90
47779;DHT22;33538;48.432;11.350;2024-03-22T10:51:43;9.60;99.90
47779;DHT22;33538;48.432;11.350;2024-03-22T10:54:11;9.60;99.90
47779;DHT22;33538;48.432;11.350;2024-03-22T10:56:40;9.60;99.90
47779;DHT22;33538;48.432;11.350;2024-03-22T10:59:07;9.70;99.90
47779;DHT22;33538;48.432;11.350;2024-03-22T11:01:33;9.70;99.90
47779;DHT22;33538;48.432;11.350;2024-03-22T11:04:03;9.70;99.90
47779;DHT22;33538;48.432;11.350;2024-03-22T11:06:30;9.70;99.90
47779;DHT22;33538;48.432;11.350;2024-03-22T11:08:59;9.80;99.90
47779;DHT22;33538;48.432;11.350;2024-03-22T11:11:28;9.80;99.90
47779;DHT22;33538;48.432;11.350;2024-03-22T11:13:55;9.80;99.90
47779;DHT22;33538;48.432;11.350;2024-03-22T11:16:21;9.80;99.90
47779;DHT22;33538;48.432;11.350;2024-03-22T11:18:47;9.80;99.90
47779;DHT22;33538;48.432;11.350;2024-03-22T11:21:13;9.90;99.90
47779;DHT22;33538;48.432;11.350;2024-03-22T11:23:40;9.90;99.90
47779;DHT22;33538;48.432;11.350;2024-03-22T11:26:06;9.90;99.90
47779;DHT22;33538;48.432;11.350;2024-03-22T11:28:31;9.90;99.90
47779;DHT22;33538;48.432;11.350;2024-03-22T11:30:59;9.90;99.90
47779;DHT22;33538;48.432;11.350;2024-03-22T11:33:25;10.00;99.90
47779;DHT22;33538;48.432;11.350;2024-03-22T11:35:51;10.00;99.90
47779;DHT22;33538;48.432;11.350;2024-03-22T11:38:17;10.00;99.90
47779;DHT22;33538;48.432;11.350;2024-03-22T11:40:43;10.00;99.90
47779;DHT22;33538;48.432;11.350;2024-03-22T11:43:10;10.10;99.90
47779;DHT22;33538;48.432;11.350;2024-03-22T11:45:37;10.10;99.90
47779;DHT22;33538;48.432;11.350;2024-03-22T11:48:06;10.20;99.90
47779;DHT22;33538;48.432;11.350;2024-03-22T11:50:32;10.20;99.90
47779;DHT22;33538;48.432;11.350;2024-03-22T11:52:58;10.20;99.90
47779;DHT22;33538;48.432;11.350;2024-03-22T11:55:26;10.30;99.90
47779;DHT22;33538;48.432;11.350;2024-03-22T11:57:52;10.30;99.90
47779;DHT22;33538;48.432;11.350;2024-03-22T12:00:18;10.30;99.90
47779;DHT22;33538;48.432;11.350;2024-03-22T12:02:45;10.40;99.90
47779;DHT22;33538;48.432;11.350;2024-03-22T12:05:12;10.40;99.90
47779;DHT22;33538;48.432;11.350;2024-03-22T12:07:39;10.50;99.90
47779;DHT22;33538;48.432;11.350;2024-03-22T12:10:06;10.50;99.90
47779;DHT22;33538;48.432;11.350;2024-03-22T12:12:32;10.50;99.90
47779;DHT22;33538;48.432;11.350;2024-03-22T12:14:58;10.60;99.90
47779;DHT22;33538;48.432;11.350;2024-03-22T12:17:23;10.60;99.90
47779;DHT22;33538;48.432;11.350;2024-03-22T12:19:49;10.60;99.90
47779;DHT22;33538;48.432;11.350;2024-03-22T12:22:17;10.60;99.90
47779;DHT22;33538;48.432;11.350;2024-03-22T12:24:42;10.60;99.90
47779;DHT22;33538;48.432;11.350;2024-03-22T12:27:08;10.70;99.90
47779;DHT22;33538;48.432;11.350;2024-03-22T12:29:34;10.70;99.90
47779;DHT22;33538;48.432;11.350;2024-03-22T12:32:01;10.70;99.90
47779;DHT22;33538;48.432;11.350;2024-03-22T12:34:27;10.80;99.90
47779;DHT22;33538;48.432;11.350;2024-03-22T12:36:53;10.80;99.90
47779;DHT22;33538;48.432;11.350;2024-03-22T12:39:20;10.80;99.90
47779;DHT22;33538;48.432;11.350;2024-03-22T12:41:46;10.80;99.90
47779;DHT22;33538;48.432;11.350;2024-03-22T12:44:12;10.80;99.90
47779;DHT22;33538;48.432;11.350;2024-03-22T12:46:38;10.80;99.90
47779;DHT22;33538;48.432;11.350;2024-03-22T12:49:04;10.80;99.90
47779;DHT22;33538;48.432;11.350;2024-03-22T12:51:30;10.80;99.90
47779;DHT22;33538;48.432;11.350;2024-03-22T12:53:56;10.90;99.90
47779;DHT22;33538;48.432;11.350;2024-03-22T12:56:23;10.90;99.90
47779;DHT22;33538;48.432;11.350;2024-03-22T12:58:49;10.90;99.90
47779;DHT22;33538;48.432;11.350;2024-03-22T13:01:15;11.00;99.90
47779;DHT22;33538;48.432;11.350;2024-03-22T13:03:40;11.00;99.90
47779;DHT22;33538;48.432;11.350;2024-03-22T13:06:06;11.00;99.90
47779;DHT22;33538;48.432;11.350;2024-03-22T13:08:32;11.00;99.90
47779;DHT22;33538;48.432;11.350;2024-03-22T13:10:58;11.00;99.90
47779;DHT22;33538;48.432;11.350;2024-03-22T13:13:25;11.00;99.90
47779;DHT22;33538;48.432;11.350;2024-03-22T13:15:51;11.10;99.90
47779;DHT22;33538;48.432;11.350;2024-03-22T13:18:17;11.10;99.90
47779;DHT22;33538;48.432;11.350;2024-03-22T13:20:43;11.10;99.90
47779;DHT22;33538;48.432;11.350;2024-03-22T13:23:09;11.10;99.90
47779;DHT22;33538;48.432;11.350;2024-03-22T13:25:35;11.10;99.90
47779;DHT22;33538;48.432;11.350;2024-03-22T13:28:01;11.20;99.90
47779;DHT22;33538;48.432;11.350;2024-03-22T13:30:28;11.20;99.90
47779;DHT22;33538;48.432;11.350;2024-03-22T13:32:54;11.20;99.90
47779;DHT22;33538;48.432;11.350;2024-03-22T13:35:20;11.20;99.90
47779;DHT22;33538;48.432;11.350;2024-03-22T13:37:46;11.20;99.90
47779;DHT22;33538;48.432;11.350;2024-03-22T13:40:12;11.30;99.90
47779;DHT22;33538;48.432;11.350;2024-03-22T13:42:38;11.30;99.90
47779;DHT22;33538;48.432;11.350;2024-03-22T13:45:04;11.30;99.90
47779;DHT22;33538;48.432;11.350;2024-03-22T13:47:31;11.30;99.90
47779;DHT22;33538;48.432;11.350;2024-03-22T13:49:57;11.30;99.90
47779;DHT22;33538;48.432;11.350;2024-03-22T13:52:23;11.30;99.90
47779;DHT22;33538;48.432;11.350;2024-03-22T13:54:49;11.40;99.90
47779;DHT22;33538;48.432;11.350;2024-03-22T13:57:15;11.40;99.90
47779;DHT22;33538;48.432;11.350;2024-03-22T13:59:41;11.40;99.90
47779;DHT22;33538;48.432;11.350;2024-03-22T14:02:07;11.40;99.90
47779;DHT22;33538;48.432;11.350;2024-03-22T14:04:34;11.40;99.90
47779;DHT22;33538;48.432;11.350;2024-03-22T14:07:00;11.50;99.90
47779;DHT22;33538;48.432;11.350;2024-03-22T14:09:26;11.50;99.90
47779;DHT22;33538;48.432;11.350;2024-03-22T14:11:51;11.50;99.90
47779;DHT22;33538;48.432;11.350;2024-03-22T14:14:17;11.50;99.90
47779;DHT22;33538;48.432;11.350;2024-03-22T14:16:43;11.60;99.90
47779;DHT22;33538;48.432;11.350;2024-03-22T14:19:09;11.60;99.90
47779;DHT22;33538;48.432;11.350;2024-03-22T14:21:37;11.60;99.90
47779;DHT22;33538;48.432;11.350;2024-03-22T14:24:03;11.60;99.90
47779;DHT22;33538;48.432;11.350;2024-03-22T14:26:29;11.60;99.90
47779;DHT22;33538;48.432;11.350;2024-03-22T14:28:54;11.60;99.90
47779;DHT22;33538;48.432;11.350;2024-03-22T14:31:20;11.60;99.90
47779;DHT22;33538;48.432;11.350;2024-03-22T14:33:46;11.60;99.90
47779;DHT22;33538;48.432;11.350;2024-03-22T14:36:12;11.60;99.90
47779;DHT22;33538;48.432;11.350;2024-03-22T14:38:40;11.60;99.90
47779;DHT22;33538;48.432;11.350;2024-03-22T14:41:05;11.70;99.90
47779;DHT22;33538;48.432;11.350;2024-03-22T14:43:31;11.70;99.90
47779;DHT22;33538;48.432;11.350;2024-03-22T14:45:57;11.70;99.90
47779;DHT22;33538;48.432;11.350;2024-03-22T14:48:23;11.70;99.90
47779;DHT22;33538;48.432;11.350;2024-03-22T14:50:50;11.70;99.90
47779;DHT22;33538;48.432;11.350;2024-03-22T14:53:16;11.70;99.90
47779;DHT22;33538;48.432;11.350;2024-03-22T14:55:51;11.70;99.90
47779;DHT22;33538;48.432;11.350;2024-03-22T14:58:17;11.70;99.90
47779;DHT22;33538;48.432;11.350;2024-03-22T15:00:51;11.80;99.90
47779;DHT22;33538;48.432;11.350;2024-03-22T15:03:17;11.70;99.90
47779;DHT22;33538;48.432;11.350;2024-03-22T15:05:43;11.80;99.90
47779;DHT22;33538;48.432;11.350;2024-03-22T15:08:09;11.80;99.90
47779;DHT22;33538;48.432;11.350;2024-03-22T15:10:35;11.80;99.90
47779;DHT22;33538;48.432;11.350;2024-03-22T15:13:02;11.80;99.90
47779;DHT22;33538;48.432;11.350;2024-03-22T15:15:28;11.80;99.90
47779;DHT22;33538;48.432;11.350;2024-03-22T15:17:54;11.90;99.90
47779;DHT22;33538;48.432;11.350;2024-03-22T15:20:19;11.90;99.90